createdAt,value
2017-07-12T00:00:38.181Z,99841
2017-07-12T00:01:38.227Z,99838
2017-07-12T00:02:36.546Z,99834
2017-07-12T00:03:36.892Z,99841
2017-07-12T00:04:37.675Z,99837
2017-07-12T00:05:36.727Z,99834
2017-07-12T00:06:37.722Z,99828
2017-07-12T00:07:36.760Z,99826
2017-07-12T00:08:37.835Z,99829
2017-07-12T00:09:37.196Z,99829
2017-07-12T00:10:38.676Z,99823
2017-07-12T00:11:37.029Z,99816
2017-07-12T00:12:37.115Z,99823
2017-07-12T00:13:38.037Z,99821
2017-07-12T00:14:38.122Z,99820
2017-07-12T00:15:37.496Z,99819
2017-07-12T00:16:38.277Z,99819
2017-07-12T00:17:38.985Z,99812
2017-07-12T00:18:38.419Z,99828
2017-07-12T00:19:38.444Z,99821
2017-07-12T00:20:37.473Z,99828
2017-07-12T00:21:39.471Z,99824
2017-07-12T00:22:38.480Z,99831
2017-07-12T00:23:38.503Z,99824
2017-07-12T00:24:37.582Z,99829
2017-07-12T00:25:38.552Z,99827
2017-07-12T00:26:37.716Z,99819
2017-07-12T00:27:38.045Z,99835
2017-07-12T00:28:37.799Z,99831
2017-07-12T00:29:38.804Z,99831
2017-07-12T00:30:38.921Z,99826
2017-07-12T00:31:38.872Z,99826
2017-07-12T00:32:37.984Z,99831
2017-07-12T00:33:38.240Z,99830
2017-07-12T00:34:38.104Z,99822
2017-07-12T00:35:38.168Z,99828
2017-07-12T00:36:39.125Z,99821
2017-07-12T00:37:38.270Z,99827
2017-07-12T00:38:38.279Z,99818
2017-07-12T00:39:38.605Z,99820
2017-07-12T00:40:38.337Z,99818
2017-07-12T00:41:40.027Z,99819
2017-07-12T00:42:39.405Z,99822
2017-07-12T00:43:38.533Z,99817
2017-07-12T00:44:39.485Z,99816
2017-07-12T00:45:39.882Z,99821
2017-07-12T00:46:40.307Z,99818
2017-07-12T00:47:39.646Z,99818
2017-07-12T00:48:39.717Z,99816
2017-07-12T00:49:38.793Z,99804
2017-07-12T00:50:39.851Z,99801
2017-07-12T00:51:40.932Z,99809
2017-07-12T00:52:39.020Z,99811
2017-07-12T00:53:40.803Z,99803
2017-07-12T00:54:39.113Z,99808
2017-07-12T00:55:40.808Z,99807
2017-07-12T00:56:40.919Z,99803
2017-07-12T00:57:39.569Z,99801
2017-07-12T00:58:40.976Z,99799
2017-07-12T00:59:40.993Z,99795
2017-07-12T01:00:39.371Z,99791
2017-07-12T01:01:39.466Z,99788
2017-07-12T01:02:40.505Z,99788
2017-07-12T01:03:39.785Z,99785
2017-07-12T01:04:40.639Z,99787
2017-07-12T01:05:41.415Z,99781
2017-07-12T01:06:40.677Z,99780
2017-07-12T01:07:40.706Z,99781
2017-07-12T01:08:41.474Z,99779
2017-07-12T01:09:41.765Z,99778
2017-07-12T01:10:39.758Z,99775
2017-07-12T01:11:40.821Z,99781
2017-07-12T01:12:40.906Z,99780
2017-07-12T01:13:39.971Z,99783
2017-07-12T01:14:40.097Z,99784
2017-07-12T01:15:41.310Z,99785
2017-07-12T01:16:41.175Z,99785
2017-07-12T01:17:41.089Z,99786
2017-07-12T01:18:41.172Z,99782
2017-07-12T01:19:41.295Z,99779
2017-07-12T01:20:40.446Z,99779
2017-07-12T01:21:40.717Z,99778
2017-07-12T01:22:40.487Z,99779
2017-07-12T01:23:41.555Z,99779
2017-07-12T01:24:41.586Z,99779
2017-07-12T01:25:42.383Z,99782
2017-07-12T01:26:41.676Z,99781
2017-07-12T01:27:40.982Z,99776
2017-07-12T01:28:40.788Z,99778
2017-07-12T01:29:40.834Z,99778
2017-07-12T01:30:41.837Z,99777
2017-07-12T01:31:41.895Z,99776
2017-07-12T01:32:41.001Z,99780
2017-07-12T01:33:41.354Z,99782
2017-07-12T01:34:42.794Z,99778
2017-07-12T01:35:41.096Z,99775
2017-07-12T01:36:42.851Z,99786
2017-07-12T01:37:42.859Z,99786
2017-07-12T01:38:42.918Z,99784
2017-07-12T01:39:41.509Z,99782
2017-07-12T01:40:41.341Z,99777
2017-07-12T01:41:42.298Z,99771
2017-07-12T01:42:43.067Z,99769
2017-07-12T01:43:42.404Z,99768
2017-07-12T01:44:42.463Z,99767
2017-07-12T01:45:41.769Z,99765
2017-07-12T01:46:43.202Z,99760
2017-07-12T01:47:43.200Z,99763
2017-07-12T01:48:41.620Z,99761
2017-07-12T01:49:43.350Z,99750
2017-07-12T01:50:42.716Z,99760
2017-07-12T01:51:42.097Z,99762
2017-07-12T01:52:41.876Z,99756
2017-07-12T01:53:43.543Z,99755
2017-07-12T01:54:43.656Z,99754
2017-07-12T01:55:41.987Z,99748
2017-07-12T01:56:43.081Z,99752
2017-07-12T01:57:44.126Z,99748
2017-07-12T01:58:42.201Z,99742
2017-07-12T01:59:42.299Z,99739
2017-07-12T02:00:43.984Z,99740
2017-07-12T02:01:42.372Z,99736
2017-07-12T02:02:42.433Z,99732
2017-07-12T02:03:42.680Z,99739
2017-07-12T02:04:44.121Z,99741
2017-07-12T02:05:42.457Z,99745
2017-07-12T02:06:42.571Z,99738
2017-07-12T02:07:45.035Z,99746
2017-07-12T02:08:42.655Z,99746
2017-07-12T02:09:43.067Z,99751
2017-07-12T02:10:42.850Z,99746
2017-07-12T02:11:44.573Z,99745
2017-07-12T02:12:43.094Z,99747
2017-07-12T02:13:42.951Z,99746
2017-07-12T02:14:42.995Z,99747
2017-07-12T02:15:44.844Z,99746
2017-07-12T02:16:43.167Z,99746
2017-07-12T02:17:44.776Z,99743
2017-07-12T02:18:43.720Z,99741
2017-07-12T02:19:44.854Z,99736
2017-07-12T02:20:43.230Z,99726
2017-07-12T02:21:45.340Z,99734
2017-07-12T02:22:45.077Z,99738
2017-07-12T02:23:44.312Z,99727
2017-07-12T02:24:43.498Z,99728
2017-07-12T02:25:45.189Z,99729
2017-07-12T02:26:43.377Z,99732
2017-07-12T02:27:43.792Z,99733
2017-07-12T02:28:43.556Z,99731
2017-07-12T02:29:43.601Z,99733
2017-07-12T02:30:45.275Z,99729
2017-07-12T02:31:43.681Z,99731
2017-07-12T02:32:43.663Z,99729
2017-07-12T02:33:45.697Z,99730
2017-07-12T02:34:45.503Z,99710
2017-07-12T02:35:46.235Z,99723
2017-07-12T02:36:44.871Z,99724
2017-07-12T02:37:44.116Z,99722
2017-07-12T02:38:44.086Z,99718
2017-07-12T02:39:44.351Z,99715
2017-07-12T02:40:44.242Z,99717
2017-07-12T02:41:45.123Z,99714
2017-07-12T02:42:45.225Z,99701
2017-07-12T02:43:45.963Z,99709
2017-07-12T02:44:44.376Z,99709
2017-07-12T02:45:45.682Z,99710
2017-07-12T02:46:46.188Z,99708
2017-07-12T02:47:44.604Z,99697
2017-07-12T02:48:45.139Z,99697
2017-07-12T02:49:44.889Z,99704
2017-07-12T02:50:44.877Z,99702
2017-07-12T02:51:44.954Z,99700
2017-07-12T02:52:46.516Z,99698
2017-07-12T02:53:44.865Z,99698
2017-07-12T02:54:45.897Z,99692
2017-07-12T02:55:44.919Z,99702
2017-07-12T02:56:45.043Z,99695
2017-07-12T02:57:46.945Z,99698
2017-07-12T02:58:46.730Z,99683
2017-07-12T02:59:46.844Z,99689
2017-07-12T03:00:46.159Z,99693
2017-07-12T03:01:46.301Z,99691
2017-07-12T03:02:46.975Z,99680
2017-07-12T03:03:46.693Z,99690
2017-07-12T03:04:46.427Z,99690
2017-07-12T03:05:47.154Z,99689
2017-07-12T03:06:45.497Z,99687
2017-07-12T03:07:46.594Z,99688
2017-07-12T03:08:45.710Z,99672
2017-07-12T03:09:47.612Z,99677
2017-07-12T03:10:46.704Z,99679
2017-07-12T03:11:45.725Z,99678
2017-07-12T03:12:46.748Z,99678
2017-07-12T03:13:46.899Z,99678
2017-07-12T03:14:46.935Z,99674
2017-07-12T03:15:46.211Z,99677
2017-07-12T03:16:45.974Z,99677
2017-07-12T03:17:47.036Z,99676
2017-07-12T03:18:47.100Z,99672
2017-07-12T03:19:46.216Z,99669
2017-07-12T03:20:46.231Z,99667
2017-07-12T03:21:46.516Z,99668
2017-07-12T03:22:47.941Z,99668
2017-07-12T03:23:47.370Z,99668
2017-07-12T03:24:47.384Z,99666
2017-07-12T03:25:46.423Z,99664
2017-07-12T03:26:48.152Z,99666
2017-07-12T03:27:46.864Z,99662
2017-07-12T03:28:46.530Z,99659
2017-07-12T03:29:48.306Z,99661
2017-07-12T03:30:47.620Z,99662
2017-07-12T03:31:48.415Z,99657
2017-07-12T03:32:48.431Z,99657
2017-07-12T03:33:47.095Z,99656
2017-07-12T03:34:47.889Z,99653
2017-07-12T03:35:46.903Z,99655
2017-07-12T03:36:46.968Z,99657
2017-07-12T03:37:47.045Z,99659
2017-07-12T03:38:48.608Z,99648
2017-07-12T03:39:47.376Z,99658
2017-07-12T03:40:47.221Z,99658
2017-07-12T03:41:48.964Z,99655
2017-07-12T03:42:48.322Z,99649
2017-07-12T03:43:47.401Z,99652
2017-07-12T03:44:47.405Z,99645
2017-07-12T03:45:47.724Z,99642
2017-07-12T03:46:47.507Z,99648
2017-07-12T03:47:47.533Z,99646
2017-07-12T03:48:48.520Z,99644
2017-07-12T03:49:48.646Z,99643
2017-07-12T03:50:48.620Z,99645
2017-07-12T03:51:48.030Z,99645
2017-07-12T03:52:48.791Z,99648
2017-07-12T03:53:47.921Z,99645
2017-07-12T03:54:47.989Z,99646
2017-07-12T03:55:47.994Z,99647
2017-07-12T03:56:49.647Z,99647
2017-07-12T03:57:48.358Z,99651
2017-07-12T03:58:49.046Z,99647
2017-07-12T03:59:48.094Z,99651
2017-07-12T04:00:49.149Z,99650
2017-07-12T04:01:49.284Z,99650
2017-07-12T04:02:48.304Z,99648
2017-07-12T04:03:49.598Z,99648
2017-07-12T04:04:50.091Z,99645
2017-07-12T04:05:48.428Z,99646
2017-07-12T04:06:50.198Z,99642
2017-07-12T04:07:49.584Z,99636
2017-07-12T04:08:49.595Z,99635
2017-07-12T04:09:48.942Z,99634
2017-07-12T04:10:50.390Z,99634
2017-07-12T04:11:50.442Z,99630
2017-07-12T04:12:49.765Z,99618
2017-07-12T04:13:48.791Z,99616
2017-07-12T04:14:48.842Z,99614
2017-07-12T04:15:50.893Z,99618
2017-07-12T04:16:50.030Z,99612
2017-07-12T04:17:50.686Z,99619
2017-07-12T04:18:50.711Z,99618
2017-07-12T04:19:50.025Z,99623
2017-07-12T04:20:49.142Z,99619
2017-07-12T04:21:49.482Z,99616
2017-07-12T04:22:49.265Z,99616
2017-07-12T04:23:49.303Z,99617
2017-07-12T04:24:50.997Z,99624
2017-07-12T04:29:24.059Z,99614
2017-07-12T04:30:22.060Z,99609
2017-07-12T04:31:22.130Z,99609
2017-07-12T04:32:23.912Z,99608
2017-07-12T04:33:22.337Z,99613
2017-07-12T04:34:23.985Z,99618
2017-07-12T04:35:22.696Z,99618
2017-07-12T04:36:23.436Z,99615
2017-07-12T04:37:23.442Z,99610
2017-07-12T04:38:25.900Z,99609
2017-07-12T04:39:23.607Z,99606
2017-07-12T04:40:23.636Z,99609
2017-07-12T04:41:23.977Z,99607
2017-07-12T04:42:24.455Z,99607
2017-07-12T04:43:23.871Z,99604
2017-07-12T04:44:23.927Z,99604
2017-07-12T04:45:23.963Z,99597
2017-07-12T04:46:23.104Z,99595
2017-07-12T04:47:23.459Z,99598
2017-07-12T04:48:23.153Z,99596
2017-07-12T04:49:23.344Z,99591
2017-07-12T04:50:24.941Z,99591
2017-07-12T04:51:23.314Z,99591
2017-07-12T04:52:23.367Z,99594
2017-07-12T04:53:23.378Z,99592
2017-07-12T04:54:23.453Z,99580
2017-07-12T04:55:24.498Z,99591
2017-07-12T04:56:23.652Z,99589
2017-07-12T04:57:23.690Z,99586
2017-07-12T04:58:23.662Z,99583
2017-07-12T04:59:25.489Z,99578
2017-07-12T05:00:24.950Z,99584
2017-07-12T05:01:23.861Z,99585
2017-07-12T05:02:23.955Z,99581
2017-07-12T05:03:24.008Z,99583
2017-07-12T05:04:25.101Z,99576
2017-07-12T05:05:24.202Z,99576
2017-07-12T05:06:25.134Z,99567
2017-07-12T05:07:25.263Z,99577
2017-07-12T05:08:25.944Z,99579
2017-07-12T05:09:25.371Z,99575
2017-07-12T05:10:25.459Z,99564
2017-07-12T05:11:24.526Z,99571
2017-07-12T05:12:25.523Z,99567
2017-07-12T05:13:24.590Z,99563
2017-07-12T05:14:26.254Z,99568
2017-07-12T05:15:24.644Z,99569
2017-07-12T05:16:24.667Z,99572
2017-07-12T05:17:26.428Z,99565
2017-07-12T05:18:26.528Z,99566
2017-07-12T05:19:24.864Z,99565
2017-07-12T05:20:24.828Z,99563
2017-07-12T05:21:24.922Z,99567
2017-07-12T05:22:26.662Z,99561
2017-07-12T05:23:25.065Z,99564
2017-07-12T05:24:25.130Z,99565
2017-07-12T05:25:25.096Z,99561
2017-07-12T05:26:25.156Z,99555
2017-07-12T05:27:25.216Z,99558
2017-07-12T05:28:25.312Z,99566
2017-07-12T05:29:25.308Z,99558
2017-07-12T05:30:26.317Z,99558
2017-07-12T05:31:25.375Z,99570
2017-07-12T05:32:27.135Z,99568
2017-07-12T05:33:26.487Z,99567
2017-07-12T05:34:26.567Z,99562
2017-07-12T05:35:26.623Z,99561
2017-07-12T05:36:26.679Z,99562
2017-07-12T05:37:25.706Z,99561
2017-07-12T05:38:27.487Z,99551
2017-07-12T05:39:27.393Z,99560
2017-07-12T05:40:25.800Z,99557
2017-07-12T05:41:27.511Z,99559
2017-07-12T05:42:26.870Z,99556
2017-07-12T05:43:25.958Z,99554
2017-07-12T05:44:26.070Z,99556
2017-07-12T05:45:27.059Z,99557
2017-07-12T05:46:26.109Z,99556
2017-07-12T05:47:28.175Z,99553
2017-07-12T05:48:27.936Z,99555
2017-07-12T05:49:26.259Z,99551
2017-07-12T05:50:26.377Z,99548
2017-07-12T05:51:26.367Z,99547
2017-07-12T05:52:27.360Z,99547
2017-07-12T05:53:26.435Z,99537
2017-07-12T05:54:27.446Z,99535
2017-07-12T05:55:26.464Z,99541
2017-07-12T05:56:26.493Z,99542
2017-07-12T05:57:28.263Z,99546
2017-07-12T05:58:28.352Z,99547
2017-07-12T05:59:26.622Z,99544
2017-07-12T06:00:26.707Z,99548
2017-07-12T06:01:27.731Z,99545
2017-07-12T06:02:26.823Z,99547
2017-07-12T06:03:27.796Z,99545
2017-07-12T06:04:28.337Z,99541
2017-07-12T06:05:28.649Z,99537
2017-07-12T06:06:27.089Z,99541
2017-07-12T06:07:27.053Z,99539
2017-07-12T06:08:28.751Z,99538
2017-07-12T06:09:27.159Z,99532
2017-07-12T06:10:28.207Z,99532
2017-07-12T06:11:27.298Z,99538
2017-07-12T06:12:27.315Z,99535
2017-07-12T06:13:28.437Z,99531
2017-07-12T06:14:28.047Z,99530
2017-07-12T06:15:27.534Z,99527
2017-07-12T06:16:28.566Z,99527
2017-07-12T06:17:28.607Z,99535
2017-07-12T06:18:29.226Z,99527
2017-07-12T06:19:27.744Z,99536
2017-07-12T06:20:27.857Z,99534
2017-07-12T06:21:28.837Z,99529
2017-07-12T06:22:27.941Z,99536
2017-07-12T06:23:28.568Z,99533
2017-07-12T06:24:29.801Z,99533
2017-07-12T06:25:29.902Z,99542
2017-07-12T06:26:29.975Z,99533
2017-07-12T06:27:28.323Z,99534
2017-07-12T06:28:30.507Z,99545
2017-07-12T06:29:30.177Z,99542
2017-07-12T06:30:30.534Z,99538
2017-07-12T06:31:28.557Z,99535
2017-07-12T06:32:28.566Z,99535
2017-07-12T06:33:28.600Z,99536
2017-07-12T06:34:30.303Z,99529
2017-07-12T06:35:28.682Z,99530
2017-07-12T06:36:28.735Z,99532
2017-07-12T06:37:28.911Z,99519
2017-07-12T06:38:30.898Z,99514
2017-07-12T06:39:29.970Z,99522
2017-07-12T06:40:30.737Z,99522
2017-07-12T06:41:29.000Z,99521
2017-07-12T06:42:30.018Z,99527
2017-07-12T06:43:30.755Z,99516
2017-07-12T06:44:31.139Z,99527
2017-07-12T06:45:29.225Z,99524
2017-07-12T06:46:30.295Z,99528
2017-07-12T06:47:30.350Z,99519
2017-07-12T06:48:30.338Z,99519
2017-07-12T06:49:30.823Z,99522
2017-07-12T06:50:31.388Z,99520
2017-07-12T06:51:29.508Z,99515
2017-07-12T06:52:31.285Z,99514
2017-07-12T06:53:29.645Z,99511
2017-07-12T06:54:31.295Z,99509
2017-07-12T06:55:30.587Z,99513
2017-07-12T06:56:29.946Z,99510
2017-07-12T06:57:31.378Z,99514
2017-07-12T06:58:31.455Z,99508
2017-07-12T06:59:29.874Z,99506
2017-07-12T07:00:29.875Z,99504
2017-07-12T07:01:29.911Z,99498
2017-07-12T07:02:31.212Z,99501
2017-07-12T07:03:30.056Z,99490
2017-07-12T07:04:31.010Z,99500
2017-07-12T07:05:30.537Z,99499
2017-07-12T07:06:31.646Z,99494
2017-07-12T07:07:30.071Z,99494
2017-07-12T07:08:30.957Z,99493
2017-07-12T07:09:30.166Z,99481
2017-07-12T07:10:31.184Z,99490
2017-07-12T07:11:31.232Z,99494
2017-07-12T07:12:31.304Z,99487
2017-07-12T07:13:32.629Z,99489
2017-07-12T07:14:32.255Z,99487
2017-07-12T07:15:31.544Z,99482
2017-07-12T07:16:32.909Z,99481
2017-07-12T07:17:32.288Z,99484
2017-07-12T07:18:30.626Z,99484
2017-07-12T07:19:30.706Z,99480
2017-07-12T07:20:32.731Z,99478
2017-07-12T07:21:31.728Z,99472
2017-07-12T07:22:31.798Z,99473
2017-07-12T07:23:30.854Z,99470
2017-07-12T07:24:31.515Z,99460
2017-07-12T07:25:31.951Z,99467
2017-07-12T07:26:32.146Z,99467
2017-07-12T07:27:32.065Z,99462
2017-07-12T07:28:31.160Z,99458
2017-07-12T07:29:31.117Z,99457
2017-07-12T07:30:32.985Z,99455
2017-07-12T07:31:32.899Z,99459
2017-07-12T07:32:31.484Z,99457
2017-07-12T07:33:31.240Z,99460
2017-07-12T07:34:31.425Z,99440
2017-07-12T07:36:31.450Z,99440
2017-07-12T07:37:34.997Z,99446
2017-07-12T07:38:33.441Z,99450
2017-07-12T07:39:31.606Z,99439
2017-07-12T07:40:32.659Z,99441
2017-07-12T07:41:31.677Z,99439
2017-07-12T07:42:33.902Z,99442
2017-07-12T07:43:35.470Z,99443
2017-07-12T07:44:34.125Z,99444
2017-07-12T07:45:32.816Z,99447
2017-07-12T07:46:33.375Z,99449
2017-07-12T07:47:33.285Z,99454
2017-07-12T07:48:32.698Z,99454
2017-07-12T07:49:34.538Z,99455
2017-07-12T07:50:38.151Z,99463
2017-07-12T07:51:35.054Z,99461
2017-07-12T07:52:34.971Z,99451
2017-07-12T07:53:32.242Z,99472
2017-07-12T07:54:32.310Z,99457
2017-07-12T07:55:32.828Z,99466
2017-07-12T07:56:32.574Z,99464
2017-07-12T07:57:32.948Z,99458
2017-07-12T07:58:33.065Z,99460
2017-07-12T07:59:33.030Z,99468
2017-07-12T08:00:33.023Z,99466
2017-07-12T08:01:35.213Z,99462
2017-07-12T08:02:32.830Z,99458
2017-07-12T08:03:36.063Z,99462
2017-07-12T08:04:34.277Z,99458
2017-07-12T08:05:35.001Z,99453
2017-07-12T08:06:33.679Z,99450
2017-07-12T08:07:32.693Z,99446
2017-07-12T08:08:34.689Z,99447
2017-07-12T08:09:33.800Z,99455
2017-07-12T08:10:32.806Z,99441
2017-07-12T08:11:33.548Z,99443
2017-07-12T08:12:33.828Z,99447
2017-07-12T08:13:33.442Z,99437
2017-07-12T08:14:34.227Z,99439
2017-07-12T08:15:33.689Z,99441
2017-07-12T08:16:34.445Z,99444
2017-07-12T08:17:33.653Z,99447
2017-07-12T08:18:33.113Z,99447
2017-07-12T08:19:34.839Z,99452
2017-07-12T08:20:38.815Z,99450
2017-07-12T08:21:33.165Z,99446
2017-07-12T08:22:35.113Z,99452
2017-07-12T08:23:33.167Z,99452
2017-07-12T08:24:34.202Z,99447
2017-07-12T08:25:35.003Z,99446
2017-07-12T08:26:37.865Z,99443
2017-07-12T08:27:35.064Z,99447
2017-07-12T08:28:33.408Z,99449
2017-07-12T08:29:37.143Z,99442
2017-07-12T08:30:34.636Z,99438
2017-07-12T08:31:34.556Z,99443
2017-07-12T08:32:35.575Z,99441
2017-07-12T08:33:33.658Z,99436
2017-07-12T08:34:34.666Z,99435
2017-07-12T08:35:35.415Z,99430
2017-07-12T08:36:33.865Z,99430
2017-07-12T08:37:33.992Z,99429
2017-07-12T08:38:35.659Z,99422
2017-07-12T08:39:35.744Z,99415
2017-07-12T08:40:35.860Z,99399
2017-07-12T08:41:35.195Z,99398
2017-07-12T08:42:35.390Z,99400
2017-07-12T08:43:34.246Z,99400
2017-07-12T08:44:34.247Z,99399
2017-07-12T08:45:34.995Z,99397
2017-07-12T08:46:34.432Z,99399
2017-07-12T08:47:34.491Z,99388
2017-07-12T08:48:36.635Z,99390
2017-07-12T08:49:36.239Z,99395
2017-07-12T08:50:36.236Z,99390
2017-07-12T08:51:35.166Z,99386
2017-07-12T08:52:37.632Z,99386
2017-07-12T08:53:36.164Z,99383
2017-07-12T08:54:37.351Z,99391
2017-07-12T08:55:39.883Z,99383
2017-07-12T08:56:36.869Z,99389
2017-07-12T08:57:37.067Z,99375
2017-07-12T08:58:36.960Z,99394
2017-07-12T08:59:37.265Z,99388
2017-07-12T09:00:35.535Z,99395
2017-07-12T09:01:37.291Z,99395
2017-07-12T09:02:35.691Z,99384
2017-07-12T09:03:36.640Z,99392
2017-07-12T09:04:39.466Z,99392
2017-07-12T09:05:36.197Z,99395
2017-07-12T09:06:35.765Z,99396
2017-07-12T09:07:35.188Z,99389
2017-07-12T09:08:35.870Z,99381
2017-07-12T09:09:36.035Z,99394
2017-07-12T09:10:37.802Z,99394
2017-07-12T09:11:42.843Z,99396
2017-07-12T09:12:40.500Z,99397
2017-07-12T09:13:38.681Z,99401
2017-07-12T09:14:35.654Z,99403
2017-07-12T09:15:39.977Z,99398
2017-07-12T09:16:37.393Z,99406
2017-07-12T09:17:42.013Z,99404
2017-07-12T09:18:38.973Z,99401
2017-07-12T09:19:37.147Z,99406
2017-07-12T09:20:39.001Z,99405
2017-07-12T09:21:36.041Z,99397
2017-07-12T09:22:36.847Z,99397
2017-07-12T09:23:36.182Z,99414
2017-07-12T09:33:36.618Z,99407
2017-07-12T09:34:38.261Z,99409
2017-07-12T09:35:37.611Z,99407
2017-07-12T09:36:37.631Z,99406
2017-07-12T09:37:37.333Z,99403
2017-07-12T09:38:39.006Z,99407
2017-07-12T09:39:40.223Z,99409
2017-07-12T09:40:40.480Z,99409
2017-07-12T09:41:39.200Z,99398
2017-07-12T09:42:38.042Z,99406
2017-07-12T09:43:38.359Z,99411
2017-07-12T09:44:37.079Z,99404
2017-07-12T09:45:40.956Z,99406
2017-07-12T09:46:37.273Z,99409
2017-07-12T09:47:38.209Z,99408
2017-07-12T09:48:39.103Z,99394
2017-07-12T09:49:37.514Z,99395
2017-07-12T09:50:38.002Z,99396
2017-07-12T09:51:37.469Z,99398
2017-07-12T09:52:38.206Z,99399
2017-07-12T09:53:42.738Z,99403
2017-07-12T09:54:43.980Z,99402
2017-07-12T09:55:38.654Z,99403
2017-07-12T09:56:41.740Z,99401
2017-07-12T09:57:38.750Z,99389
2017-07-12T09:58:39.993Z,99396
2017-07-12T09:59:39.630Z,99387
2017-07-12T10:00:41.037Z,99394
2017-07-12T10:01:38.669Z,99382
2017-07-12T10:02:38.146Z,99391
2017-07-12T10:03:39.878Z,99391
2017-07-12T10:04:38.863Z,99378
2017-07-12T10:05:38.971Z,99334
2017-07-12T10:06:39.939Z,99380
2017-07-12T10:07:40.029Z,99390
2017-07-12T10:08:39.319Z,99395
2017-07-12T10:09:40.711Z,99390
2017-07-12T10:10:41.713Z,99375
2017-07-12T10:11:41.269Z,99376
2017-07-12T10:12:39.177Z,99380
2017-07-12T10:13:39.279Z,99380
2017-07-12T10:14:39.609Z,99377
2017-07-12T10:15:38.776Z,99380
2017-07-12T10:16:38.889Z,99376
2017-07-12T10:17:40.390Z,99376
2017-07-12T10:18:40.188Z,99378
2017-07-12T10:19:40.079Z,99374
2017-07-12T10:20:41.896Z,99378
2017-07-12T10:21:42.277Z,99385
2017-07-12T10:22:41.323Z,99382
2017-07-12T10:23:40.058Z,99376
2017-07-12T10:24:40.757Z,99376
2017-07-12T10:25:40.378Z,99287
2017-07-12T10:26:44.301Z,99373
2017-07-12T10:27:44.042Z,99376
2017-07-12T10:28:41.003Z,99377
2017-07-12T10:29:46.185Z,99375
2017-07-12T10:30:40.382Z,99372
2017-07-12T10:31:40.564Z,99365
2017-07-12T10:32:43.566Z,99379
2017-07-12T10:33:45.865Z,99375
2017-07-12T10:34:42.162Z,99374
2017-07-12T10:35:43.035Z,99378
2017-07-12T10:36:44.943Z,99376
2017-07-12T10:37:42.172Z,99375
2017-07-12T10:38:39.841Z,99373
2017-07-12T10:39:40.507Z,99365
2017-07-12T10:40:40.747Z,99377
2017-07-12T10:41:42.958Z,99367
2017-07-12T10:42:40.654Z,99369
2017-07-12T10:43:41.812Z,99369
2017-07-12T10:44:41.856Z,99372
2017-07-12T10:45:41.939Z,99373
2017-07-12T10:46:45.612Z,99371
2017-07-12T10:47:41.568Z,99361
2017-07-12T10:48:42.907Z,99376
2017-07-12T10:49:42.034Z,99372
2017-07-12T10:50:41.146Z,99371
2017-07-12T10:51:44.047Z,99372
2017-07-12T10:52:43.548Z,99367
2017-07-12T10:53:43.576Z,99373
2017-07-12T10:54:43.027Z,99367
2017-07-12T10:55:42.993Z,99366
2017-07-12T10:56:42.918Z,99372
2017-07-12T10:57:42.443Z,99371
2017-07-12T10:58:40.829Z,99373
2017-07-12T10:59:42.881Z,99366
2017-07-12T11:00:43.785Z,99365
2017-07-12T11:01:42.052Z,99360
2017-07-12T11:02:43.351Z,99350
2017-07-12T11:03:43.797Z,99354
2017-07-12T11:04:42.565Z,99364
2017-07-12T11:05:42.192Z,99359
2017-07-12T11:06:42.542Z,99353
2017-07-12T11:07:43.342Z,99352
2017-07-12T11:08:43.146Z,99353
2017-07-12T11:09:42.621Z,99341
2017-07-12T11:10:41.499Z,99349
2017-07-12T11:11:43.818Z,99344
2017-07-12T11:12:42.707Z,99348
2017-07-12T11:13:41.892Z,99345
2017-07-12T11:14:41.602Z,99344
2017-07-12T11:15:45.065Z,99350
2017-07-12T11:16:43.503Z,99343
2017-07-12T11:17:44.022Z,99334
2017-07-12T11:18:44.522Z,99342
2017-07-12T11:19:42.264Z,99343
2017-07-12T11:20:41.998Z,99338
2017-07-12T11:21:43.146Z,99328
2017-07-12T11:22:44.714Z,99333
2017-07-12T11:23:42.856Z,99342
2017-07-12T11:24:43.882Z,99327
2017-07-12T11:25:42.345Z,99335
2017-07-12T11:26:42.195Z,99329
2017-07-12T11:27:45.050Z,99323
2017-07-12T11:28:42.822Z,99325
2017-07-12T11:29:42.911Z,99325
2017-07-12T11:30:45.420Z,99322
2017-07-12T11:31:44.377Z,99324
2017-07-12T11:32:44.238Z,99313
2017-07-12T11:33:44.714Z,99312
2017-07-12T11:34:49.815Z,99322
2017-07-12T11:35:45.705Z,99311
2017-07-12T11:36:44.550Z,99302
2017-07-12T11:37:43.453Z,99310
2017-07-12T11:38:43.932Z,99311
2017-07-12T11:39:44.510Z,99306
2017-07-12T11:40:45.446Z,99303
2017-07-12T11:41:45.117Z,99302
2017-07-12T11:42:44.518Z,99300
2017-07-12T11:43:45.365Z,99300
2017-07-12T11:44:42.938Z,99288
2017-07-12T11:45:43.981Z,99299
2017-07-12T11:46:44.733Z,99290
2017-07-12T11:47:46.015Z,99294
2017-07-12T11:48:43.734Z,99285
2017-07-12T11:49:44.489Z,99291
2017-07-12T11:50:46.332Z,99288
2017-07-12T11:51:43.925Z,99283
2017-07-12T11:52:44.287Z,99287
2017-07-12T11:53:45.095Z,99284
2017-07-12T11:54:44.095Z,99280
2017-07-12T11:55:43.728Z,99282
2017-07-12T11:56:45.154Z,99282
2017-07-12T11:57:43.558Z,99267
2017-07-12T11:58:45.019Z,99281
2017-07-12T11:59:45.346Z,99270
2017-07-12T12:00:46.880Z,99275
2017-07-12T12:01:45.044Z,99273
2017-07-12T12:02:43.877Z,99272
2017-07-12T12:03:44.872Z,99265
2017-07-12T12:04:43.915Z,99272
2017-07-12T12:05:44.056Z,99270
2017-07-12T12:06:43.982Z,99268
2017-07-12T12:07:47.222Z,99265
2017-07-12T12:08:44.930Z,99270
2017-07-12T12:09:44.154Z,99278
2017-07-12T12:10:44.847Z,99269
2017-07-12T12:11:46.336Z,99264
2017-07-12T12:12:46.191Z,99271
2017-07-12T12:13:47.304Z,99268
2017-07-12T12:14:46.118Z,99271
2017-07-12T12:15:45.056Z,99265
2017-07-12T12:16:44.571Z,99271
2017-07-12T12:17:45.178Z,99270
2017-07-12T12:18:47.006Z,99262
2017-07-12T12:19:44.912Z,99264
2017-07-12T12:20:44.711Z,99266
2017-07-12T12:21:45.737Z,99266
2017-07-12T12:22:46.339Z,99270
2017-07-12T12:23:47.098Z,99271
2017-07-12T12:24:46.521Z,99263
2017-07-12T12:25:47.176Z,99261
2017-07-12T12:26:45.983Z,99263
2017-07-12T12:27:45.593Z,99280
2017-07-12T12:28:45.070Z,99289
2017-07-12T12:29:46.051Z,99291
2017-07-12T12:30:49.361Z,99290
2017-07-12T12:31:45.622Z,99311
2017-07-12T12:32:46.662Z,99291
2017-07-12T12:33:45.363Z,99277
2017-07-12T12:34:45.359Z,99291
2017-07-12T12:35:47.005Z,99309
2017-07-12T12:36:45.470Z,99337
2017-07-12T12:37:45.926Z,99356
2017-07-12T12:38:46.530Z,99379
2017-07-12T12:39:45.592Z,99381
2017-07-12T12:40:47.912Z,99406
2017-07-12T12:41:45.738Z,99427
2017-07-12T12:42:45.677Z,99438
2017-07-12T12:43:47.785Z,99447
2017-07-12T12:44:47.390Z,99463
2017-07-12T12:45:45.837Z,99468
2017-07-12T12:46:46.765Z,99480
2017-07-12T12:47:45.922Z,99492
2017-07-12T12:48:47.504Z,99490
2017-07-12T12:49:47.503Z,99504
2017-07-12T12:50:46.936Z,99505
2017-07-12T12:51:47.615Z,99516
2017-07-12T12:52:46.573Z,99527
2017-07-12T12:53:47.644Z,99526
2017-07-12T12:54:47.900Z,99534
2017-07-12T12:55:48.415Z,99535
2017-07-12T12:56:48.811Z,99544
2017-07-12T12:57:46.928Z,99561
2017-07-12T12:58:48.620Z,99561
2017-07-12T12:59:48.464Z,99557
2017-07-12T13:00:47.554Z,99575
2017-07-12T13:01:46.932Z,99581
2017-07-12T13:02:48.565Z,99586
2017-07-12T13:03:47.270Z,99582
2017-07-12T13:04:49.241Z,99600
2017-07-12T13:05:46.914Z,99599
2017-07-12T13:06:47.040Z,99604